Estación de Longaví Norte

Ultimos registro cada 15 minutos 42
Estación Fecha / Hora Temperatura Humedad Lluvia Velocidad Dirección Radiación Presion
42 Longaví Norte 07-05-2026 10:15 8,8 100 0 0,3 282 438,1 1009,4
41 Longaví Norte 07-05-2026 10:00 8,1 100 0 0,3 337 383,1 1008,9
40 Longaví Norte 07-05-2026 09:45 7,2 100 0 0,3 29 176,9 1009
39 Longaví Norte 07-05-2026 09:30 6,9 100 0 0,3 55 173,1 1009
38 Longaví Norte 07-05-2026 09:15 6 100 0 0 0 114,4 1008,8
37 Longaví Norte 07-05-2026 09:00 5,4 100 0 0 216 148,1 1008,7
36 Longaví Norte 07-05-2026 08:45 4,8 100 0 0 264 81,9 1008,3
35 Longaví Norte 07-05-2026 08:30 4,1 100 0 0 333 73,1 1008,3
34 Longaví Norte 07-05-2026 08:15 3,7 100 0 0 333 48,1 1008
33 Longaví Norte 07-05-2026 08:00 2,8 100 0 0 333 28,1 1008
32 Longaví Norte 07-05-2026 07:45 1,8 100 0 0 333 6,9 1007,7
31 Longaví Norte 07-05-2026 07:30 1,6 100 0 0 333 3,1 1007,6
30 Longaví Norte 07-05-2026 07:15 1,3 100 0 0 333 0,6 1007,5
29 Longaví Norte 07-05-2026 07:00 1 100 0 0 333 0,6 1007,4
28 Longaví Norte 07-05-2026 06:45 1 100 0 0 333 0,6 1007,3
27 Longaví Norte 07-05-2026 06:30 0,9 100 0 0 333 0,6 1006,9
26 Longaví Norte 07-05-2026 06:15 1,3 100 0 0 333 0,6 1006,9
25 Longaví Norte 07-05-2026 06:00 1,7 100 0 0 333 0,6 1006,9
24 Longaví Norte 07-05-2026 05:45 2 100 0 0 333 0,6 1006,8
23 Longaví Norte 07-05-2026 05:30 2,3 100 0 0 333 0,6 1006,6
22 Longaví Norte 07-05-2026 05:15 2,9 100 0 0 333 0,6 1006,4
21 Longaví Norte 07-05-2026 05:00 3,4 100 0 0 333 0,6 1006,2
20 Longaví Norte 07-05-2026 04:45 3,6 100 0 0 333 0,6 1006,2
19 Longaví Norte 07-05-2026 04:30 4,2 100 0 0 333 0,6 1006,2
18 Longaví Norte 07-05-2026 04:15 4,2 100 0 0 333 0,6 1006
17 Longaví Norte 07-05-2026 04:00 3,7 100 0 0 333 0,6 1005,7
16 Longaví Norte 07-05-2026 03:45 3,2 100 0 0 333 0,6 1005,8
15 Longaví Norte 07-05-2026 03:30 3,2 100 0 0 333 0,6 1005,5
14 Longaví Norte 07-05-2026 03:15 3,3 99,7 0 0 333 0,6 1005,6
13 Longaví Norte 07-05-2026 03:00 3,8 100 0 0 333 0,6 1005,6
12 Longaví Norte 07-05-2026 02:45 3,5 99,9 0 0 333 0,6 1005,5
11 Longaví Norte 07-05-2026 02:30 3,8 100 0 0 333 0,6 1005,6
10 Longaví Norte 07-05-2026 02:15 4 99,8 0 0 333 0,6 1005,6
9 Longaví Norte 07-05-2026 02:00 4,1 99,7 0 0 333 0,6 1005,7
8 Longaví Norte 07-05-2026 01:45 4,4 99,6 0 0 333 0,6 1005,7
7 Longaví Norte 07-05-2026 01:30 5,1 99,3 0 0 333 0,6 1005,2
6 Longaví Norte 07-05-2026 01:15 5,7 99,2 0 0 333 0,6 1004,9
5 Longaví Norte 07-05-2026 01:00 6,4 99,3 0 0 333 0,6 1005
4 Longaví Norte 07-05-2026 00:45 6,6 99,2 0 0 333 0,6 1004,9
3 Longaví Norte 07-05-2026 00:30 6,4 98,8 0 0 333 0,6 1005,1
2 Longaví Norte 07-05-2026 00:15 7 98,7 0 0 333 0,6 1004,9
1 Longaví Norte 07-05-2026 00:00 7,2 98,7 0 0 333 0,6 1004,7